Time;durP1;ratioP1;P1;durP2;ratioP2;P2;SDS_P1;SDS_P2;PMS_P1;PMS_P2;Temp;Humidity;BMP_temperature;BMP_pressure;BME280_temperature;BME280_humidity;BME280_pressure;Samples;Min_cycle;Max_cycle;Signal;HPM_P1;HPM_P2
2021/11/13 00:04:04;;;;;;;34.35;22.75;;;;;;;;;;10334318;28;20113;-82
2021/11/13 00:09:04;;;;;;;22.50;17.25;;;;;;;;;;10349216;28;20476;-83
2021/11/13 00:14:05;;;;;;;25.87;18.07;;;;;;;;;;10335609;28;20104;-82
2021/11/13 00:19:05;;;;;;;29.77;17.35;;;;;;;;;;10362028;28;20284;-83
2021/11/13 00:24:05;;;;;;;28.70;18.33;;;;;;;;;;10362927;28;20491;-82
2021/11/13 00:29:05;;;;;;;29.77;18.67;;;;;;;;;;10346240;28;20031;-82
2021/11/13 00:34:06;;;;;;;18.48;16.60;;;;;;;;;;10362433;28;20275;-82
2021/11/13 00:39:06;;;;;;;23.98;15.35;;;;;;;;;;10362872;28;20030;-83
2021/11/13 00:44:06;;;;;;;23.80;16.35;;;;;;;;;;10346775;28;20053;-83
2021/11/13 00:49:07;;;;;;;17.48;15.35;;;;;;;;;;10348905;28;20032;-81
2021/11/13 00:54:07;;;;;;;20.95;14.30;;;;;;;;;;10352027;28;20105;-84
2021/11/13 00:59:07;;;;;;;18.13;13.83;;;;;;;;;;10361732;28;20039;-82
2021/11/13 01:04:08;;;;;;;21.30;15.33;;;;;;;;;;10363051;28;20367;-83
2021/11/13 01:09:08;;;;;;;27.95;14.10;;;;;;;;;;10346563;28;20402;-84
2021/11/13 01:14:09;;;;;;;20.42;12.43;;;;;;;;;;10345170;28;20460;-83
2021/11/13 01:19:11;;;;;;;15.50;11.13;;;;;;;;;;10346155;28;20058;-84
2021/11/13 01:24:14;;;;;;;10.43;9.48;;;;;;;;;;10347517;28;20500;-83
2021/11/13 01:29:14;;;;;;;19.83;11.05;;;;;;;;;;10355099;28;20034;-83
2021/11/13 01:34:16;;;;;;;18.33;10.05;;;;;;;;;;10338272;28;20046;-83
2021/11/13 01:39:16;;;;;;;13.80;10.65;;;;;;;;;;10338354;28;20125;-82
2021/11/13 01:44:16;;;;;;;9.88;8.23;;;;;;;;;;10354480;28;20030;-82
2021/11/13 01:49:18;;;;;;;8.17;6.80;;;;;;;;;;10354896;28;20034;-82
2021/11/13 01:54:19;;;;;;;18.17;9.32;;;;;;;;;;10338453;28;20614;-82
2021/11/13 01:59:21;;;;;;;21.10;7.88;;;;;;;;;;10353422;28;20034;-82
2021/11/13 02:04:21;;;;;;;16.75;7.45;;;;;;;;;;10352956;28;20065;-82
2021/11/13 02:09:22;;;;;;;16.90;6.75;;;;;;;;;;10339665;28;20109;-83
2021/11/13 02:14:22;;;;;;;26.98;7.70;;;;;;;;;;10338901;28;20030;-82
2021/11/13 02:19:22;;;;;;;23.23;7.40;;;;;;;;;;10338097;28;20034;-82
2021/11/13 02:24:23;;;;;;;20.42;5.55;;;;;;;;;;10352843;28;20054;-82
2021/11/13 02:29:23;;;;;;;11.20;4.57;;;;;;;;;;10337154;28;20126;-82
2021/11/13 02:34:24;;;;;;;18.95;6.70;;;;;;;;;;10353270;28;20460;-79
2021/11/13 02:39:24;;;;;;;12.57;5.80;;;;;;;;;;10335607;28;20069;-79
2021/11/13 02:44:26;;;;;;;21.60;4.80;;;;;;;;;;10338722;28;20308;-80
2021/11/13 02:49:26;;;;;;;15.38;4.72;;;;;;;;;;10336291;28;20530;-80
2021/11/13 02:54:26;;;;;;;7.25;4.20;;;;;;;;;;10335374;28;20083;-80
2021/11/13 02:59:27;;;;;;;13.32;5.03;;;;;;;;;;10336525;28;20034;-80
2021/11/13 03:04:27;;;;;;;10.85;4.93;;;;;;;;;;10335727;28;20033;-80
2021/11/13 03:09:27;;;;;;;18.17;5.80;;;;;;;;;;10351445;28;20113;-80
2021/11/13 03:14:27;;;;;;;15.88;6.22;;;;;;;;;;10350731;28;20495;-80
2021/11/13 03:19:28;;;;;;;17.47;4.63;;;;;;;;;;10350328;28;20057;-80
2021/11/13 03:24:28;;;;;;;18.00;5.65;;;;;;;;;;10350571;28;20315;-79
2021/11/13 03:29:29;;;;;;;18.52;6.00;;;;;;;;;;10336304;28;20471;-80
2021/11/13 03:34:33;;;;;;;20.50;5.78;;;;;;;;;;10335918;28;20030;-79
2021/11/13 03:39:33;;;;;;;14.23;4.65;;;;;;;;;;10334884;28;20049;-80
2021/11/13 03:44:33;;;;;;;11.60;4.82;;;;;;;;;;10335764;28;20112;-79
2021/11/13 03:49:33;;;;;;;11.88;4.05;;;;;;;;;;10349904;28;20117;-79
2021/11/13 03:54:36;;;;;;;9.88;2.88;;;;;;;;;;10333379;28;20069;-79
2021/11/13 03:59:37;;;;;;;4.13;2.45;;;;;;;;;;10348808;28;20058;-79
2021/11/13 04:04:38;;;;;;;25.75;4.75;;;;;;;;;;10350301;28;20540;-79
2021/11/13 04:09:39;;;;;;;4.00;1.90;;;;;;;;;;10350146;28;20030;-79
2021/11/13 04:14:41;;;;;;;6.88;2.70;;;;;;;;;;10334326;28;20023;-80
2021/11/13 04:19:41;;;;;;;8.30;2.83;;;;;;;;;;10349029;28;20030;-80
2021/11/13 04:24:41;;;;;;;8.25;2.92;;;;;;;;;;10336086;28;20395;-79
2021/11/13 04:29:42;;;;;;;11.48;4.07;;;;;;;;;;10349033;28;20380;-79
2021/11/13 04:34:49;;;;;;;12.45;3.10;;;;;;;;;;10333381;28;20110;-80
2021/11/13 04:39:49;;;;;;;11.13;2.50;;;;;;;;;;10333091;28;20081;-79
2021/11/13 04:44:49;;;;;;;6.38;2.75;;;;;;;;;;10333054;28;20030;-80
2021/11/13 04:49:50;;;;;;;10.43;2.03;;;;;;;;;;10348786;28;20439;-79
2021/11/13 04:54:50;;;;;;;10.23;2.88;;;;;;;;;;10332913;28;20776;-79
2021/11/13 04:59:50;;;;;;;5.50;2.15;;;;;;;;;;10348494;28;20527;-79
2021/11/13 05:04:54;;;;;;;17.00;3.45;;;;;;;;;;10355966;28;20034;-79
2021/11/13 05:09:54;;;;;;;3.17;2.13;;;;;;;;;;10355678;28;20344;-79
2021/11/13 05:14:55;;;;;;;7.60;2.03;;;;;;;;;;10341301;28;20030;-79
2021/11/13 05:19:55;;;;;;;18.85;2.83;;;;;;;;;;10355679;28;20449;-80
2021/11/13 05:24:55;;;;;;;6.75;2.65;;;;;;;;;;10356369;28;20117;-79
2021/11/13 05:29:55;;;;;;;8.98;2.67;;;;;;;;;;10355252;28;20073;-79
2021/11/13 05:34:56;;;;;;;1.90;1.80;;;;;;;;;;10355080;28;20037;-79
2021/11/13 05:39:56;;;;;;;3.47;2.65;;;;;;;;;;10339656;28;20030;-79
2021/11/13 05:44:56;;;;;;;10.60;3.17;;;;;;;;;;10354757;28;20039;-79
2021/11/13 05:49:56;;;;;;;9.07;3.15;;;;;;;;;;10339430;28;20411;-79
2021/11/13 05:54:57;;;;;;;4.10;2.25;;;;;;;;;;10354930;28;20053;-79
2021/11/13 05:59:57;;;;;;;5.95;2.85;;;;;;;;;;10353536;28;20495;-79
2021/11/13 06:04:57;;;;;;;7.90;3.17;;;;;;;;;;10354043;28;20109;-80
2021/11/13 06:09:57;;;;;;;4.70;2.22;;;;;;;;;;10353849;28;20113;-80
2021/11/13 06:14:58;;;;;;;3.08;1.58;;;;;;;;;;10336460;28;20369;-80
2021/11/13 06:19:58;;;;;;;12.85;2.95;;;;;;;;;;10336488;28;20097;-80
2021/11/13 06:24:58;;;;;;;6.72;3.38;;;;;;;;;;10353103;28;20024;-80
2021/11/13 06:29:58;;;;;;;4.43;2.15;;;;;;;;;;10336494;28;20373;-80
2021/11/13 06:34:59;;;;;;;4.20;1.80;;;;;;;;;;10352790;28;20524;-79
2021/11/13 06:39:59;;;;;;;8.43;3.15;;;;;;;;;;10338283;28;20041;-79
2021/11/13 06:45:00;;;;;;;4.90;3.03;;;;;;;;;;10335882;28;20026;-79
2021/11/13 06:50:00;;;;;;;3.78;2.53;;;;;;;;;;10352666;28;20054;-81
2021/11/13 06:55:00;;;;;;;3.28;1.80;;;;;;;;;;10351260;28;20041;-80
2021/11/13 07:00:01;;;;;;;3.92;2.35;;;;;;;;;;10336991;28;20030;-80
2021/11/13 07:05:02;;;;;;;13.35;3.33;;;;;;;;;;10352673;28;20058;-80
2021/11/13 07:10:03;;;;;;;6.88;1.98;;;;;;;;;;10335303;28;20457;-80
2021/11/13 07:15:03;;;;;;;10.80;2.53;;;;;;;;;;10351151;28;20030;-80
2021/11/13 07:20:04;;;;;;;6.55;3.03;;;;;;;;;;10350658;28;20042;-80
2021/11/13 07:25:04;;;;;;;2.83;2.08;;;;;;;;;;10335365;28;20113;-80
2021/11/13 07:30:05;;;;;;;8.02;2.55;;;;;;;;;;10335760;28;20030;-80
2021/11/13 07:35:05;;;;;;;3.13;2.60;;;;;;;;;;10334905;28;20416;-80
2021/11/13 07:40:06;;;;;;;3.37;2.93;;;;;;;;;;10351451;28;20042;-81
2021/11/13 07:45:07;;;;;;;7.88;3.03;;;;;;;;;;10351587;28;20268;-82
2021/11/13 07:50:08;;;;;;;2.67;2.47;;;;;;;;;;10333553;28;20478;-80
2021/11/13 07:55:09;;;;;;;11.45;3.55;;;;;;;;;;10334555;28;20041;-80
2021/11/13 08:00:10;;;;;;;10.25;3.72;;;;;;;;;;10333181;28;20145;-81
2021/11/13 08:05:10;;;;;;;5.40;2.78;;;;;;;;;;10350148;28;20510;-81
2021/11/13 08:10:10;;;;;;;2.58;1.92;;;;;;;;;;10333793;28;20447;-81
2021/11/13 08:15:11;;;;;;;6.82;2.88;;;;;;;;;;10349348;28;20113;-82
2021/11/13 08:20:12;;;;;;;3.17;1.42;;;;;;;;;;10333333;28;20034;-81
2021/11/13 08:25:12;;;;;;;5.75;2.75;;;;;;;;;;10334675;28;20463;-81
2021/11/13 08:30:14;;;;;;;4.80;1.88;;;;;;;;;;10348401;28;20456;-81
2021/11/13 08:35:15;;;;;;;9.02;2.60;;;;;;;;;;10333973;28;20037;-81
2021/11/13 08:40:15;;;;;;;11.05;2.45;;;;;;;;;;10340458;28;20391;-82
2021/11/13 08:45:15;;;;;;;5.23;3.57;;;;;;;;;;10341163;28;20033;-81
2021/11/13 08:50:23;;;;;;;3.17;1.75;;;;;;;;;;10355967;28;20274;-81
2021/11/13 08:55:23;;;;;;;4.13;1.85;;;;;;;;;;10341199;28;20054;-81
2021/11/13 09:00:28;;;;;;;9.38;2.95;;;;;;;;;;10340917;28;20062;-81
2021/11/13 09:05:28;;;;;;;4.68;1.48;;;;;;;;;;10339231;28;20420;-82
2021/11/13 09:10:29;;;;;;;5.50;1.65;;;;;;;;;;10340305;28;20026;-81
2021/11/13 09:15:29;;;;;;;1.48;1.38;;;;;;;;;;10355834;28;20349;-80
2021/11/13 09:20:30;;;;;;;4.00;1.40;;;;;;;;;;10355705;28;20399;-81
2021/11/13 09:25:30;;;;;;;2.17;1.23;;;;;;;;;;10339073;28;20030;-81
2021/11/13 09:30:31;;;;;;;2.13;1.75;;;;;;;;;;10354765;28;20033;-81
2021/11/13 09:35:31;;;;;;;4.45;1.77;;;;;;;;;;10340902;28;20042;-81
2021/11/13 09:40:31;;;;;;;2.53;1.50;;;;;;;;;;10356326;28;20038;-81
2021/11/13 09:45:32;;;;;;;10.57;2.20;;;;;;;;;;10354425;28;20339;-81
2021/11/13 09:50:34;;;;;;;3.78;2.08;;;;;;;;;;10353251;28;20045;-83
2021/11/13 09:55:34;;;;;;;5.07;2.95;;;;;;;;;;10340202;28;20033;-82
2021/11/13 10:00:36;;;;;;;8.55;1.70;;;;;;;;;;10353993;28;20551;-81
2021/11/13 10:05:36;;;;;;;10.32;1.85;;;;;;;;;;10354722;28;20045;-84
2021/11/13 10:10:37;;;;;;;5.72;2.20;;;;;;;;;;10354740;28;20054;-81
2021/11/13 10:15:38;;;;;;;6.60;2.35;;;;;;;;;;10338595;28;20034;-83
2021/11/13 10:20:40;;;;;;;1.58;1.15;;;;;;;;;;10352761;28;20062;-81
2021/11/13 10:25:53;;;;;;;5.90;2.00;;;;;;;;;;10336627;28;20026;-82
2021/11/13 10:31:04;;;;;;;2.28;1.35;;;;;;;;;;10337872;28;20414;-82
2021/11/13 10:36:04;;;;;;;1.30;1.20;;;;;;;;;;10336232;28;20093;-81
2021/11/13 10:41:08;;;;;;;3.17;1.92;;;;;;;;;;10352264;28;20042;-81
2021/11/13 10:46:16;;;;;;;2.20;1.67;;;;;;;;;;10352055;28;20057;-75
2021/11/13 10:51:17;;;;;;;1.67;1.58;;;;;;;;;;10335944;28;20026;-84
2021/11/13 10:56:24;;;;;;;7.35;1.88;;;;;;;;;;10335421;28;20109;-77
2021/11/13 11:01:34;;;;;;;4.25;1.73;;;;;;;;;;10336085;28;20452;-80
2021/11/13 11:06:38;;;;;;;6.05;2.25;;;;;;;;;;10335902;28;20113;-80
2021/11/13 11:11:39;;;;;;;9.20;2.45;;;;;;;;;;10352251;28;20058;-79
2021/11/13 11:16:39;;;;;;;1.15;1.15;;;;;;;;;;10350229;28;20045;-74
2021/11/13 11:21:50;;;;;;;2.65;1.77;;;;;;;;;;10335155;28;20073;-75
2021/11/13 11:27:01;;;;;;;1.88;1.67;;;;;;;;;;10336099;28;20018;-81
2021/11/13 11:32:03;;;;;;;3.95;1.15;;;;;;;;;;10350447;28;20025;-79
2021/11/13 11:37:22;;;;;;;5.25;2.20;;;;;;;;;;10350260;28;20018;-78
2021/11/13 11:42:22;;;;;;;2.75;2.33;;;;;;;;;;10335610;28;20034;-79
2021/11/13 11:47:22;;;;;;;3.28;2.03;;;;;;;;;;10349407;28;20491;-75
2021/11/13 11:52:23;;;;;;;5.60;1.35;;;;;;;;;;10335204;28;20030;-74
2021/11/13 11:57:26;;;;;;;1.83;1.48;;;;;;;;;;10349624;28;20065;-73
2021/11/13 12:02:34;;;;;;;3.53;1.55;;;;;;;;;;10334729;28;20113;-73
2021/11/13 12:07:34;;;;;;;3.33;0.80;;;;;;;;;;10333416;28;20486;-73
2021/11/13 12:12:35;;;;;;;3.13;1.35;;;;;;;;;;10332732;28;20026;-73
2021/11/13 12:17:36;;;;;;;5.90;2.33;;;;;;;;;;10333470;28;20054;-73
2021/11/13 12:22:48;;;;;;;1.45;1.20;;;;;;;;;;10349791;28;20130;-74
2021/11/13 12:28:07;;;;;;;3.55;2.03;;;;;;;;;;10333657;28;20023;-74
2021/11/13 12:33:26;;;;;;;8.18;2.13;;;;;;;;;;10331792;28;20049;-73
2021/11/13 12:38:36;;;;;;;8.60;2.00;;;;;;;;;;10333313;28;20030;-72
2021/11/13 12:44:05;;;;;;;1.13;1.02;;;;;;;;;;10333734;28;20030;-73
2021/11/13 12:49:18;;;;;;;0.73;0.73;;;;;;;;;;10328601;28;20420;-74
2021/11/13 12:54:22;;;;;;;1.05;0.73;;;;;;;;;;10333002;28;20030;-73
2021/11/13 12:59:24;;;;;;;1.15;0.75;;;;;;;;;;10331375;28;20121;-72
2021/11/13 13:04:25;;;;;;;0.75;0.75;;;;;;;;;;10333540;28;20116;-71
2021/11/13 13:09:27;;;;;;;3.45;0.88;;;;;;;;;;10332514;28;20133;-73
2021/11/13 13:14:28;;;;;;;7.43;1.15;;;;;;;;;;10333719;28;20061;-71
2021/11/13 13:19:32;;;;;;;1.73;1.63;;;;;;;;;;10332804;28;20041;-74
2021/11/13 13:24:33;;;;;;;0.85;0.85;;;;;;;;;;10352851;28;20058;-74
2021/11/13 13:29:33;;;;;;;0.65;0.65;;;;;;;;;;10340508;28;20026;-75
2021/11/13 13:34:49;;;;;;;6.53;1.58;;;;;;;;;;10337408;28;20045;-73
2021/11/13 13:39:50;;;;;;;6.32;0.95;;;;;;;;;;10339932;28;20029;-75
2021/11/13 13:44:54;;;;;;;1.75;1.10;;;;;;;;;;10336662;28;20022;-74
2021/11/13 13:49:55;;;;;;;5.78;1.00;;;;;;;;;;10338346;28;20037;-74
2021/11/13 13:54:55;;;;;;;7.05;1.23;;;;;;;;;;10338756;28;20030;-75
2021/11/13 13:59:57;;;;;;;4.50;1.70;;;;;;;;;;10338241;28;20034;-75
2021/11/13 14:04:58;;;;;;;13.32;2.08;;;;;;;;;;10338714;28;20033;-77
2021/11/13 14:09:58;;;;;;;4.40;1.92;;;;;;;;;;10336855;28;20025;-76
2021/11/13 14:15:09;;;;;;;2.47;1.77;;;;;;;;;;10337631;28;20030;-75
2021/11/13 14:20:13;;;;;;;7.18;1.95;;;;;;;;;;10335849;28;20027;-75
2021/11/13 14:25:13;;;;;;;4.75;2.05;;;;;;;;;;10353405;28;20025;-75
2021/11/13 14:30:14;;;;;;;5.35;1.92;;;;;;;;;;10335891;28;20357;-74
2021/11/13 14:35:17;;;;;;;4.95;1.27;;;;;;;;;;10350942;28;20032;-76
2021/11/13 14:40:17;;;;;;;3.05;1.48;;;;;;;;;;10336654;28;20057;-75
2021/11/13 14:45:28;;;;;;;3.20;2.08;;;;;;;;;;10337034;28;20105;-74
2021/11/13 14:50:30;;;;;;;3.72;1.73;;;;;;;;;;10337364;28;20050;-75
2021/11/13 14:55:34;;;;;;;5.93;2.28;;;;;;;;;;10335013;28;20383;-77
2021/11/13 15:00:38;;;;;;;6.75;2.08;;;;;;;;;;10336305;28;20478;-76
2021/11/13 15:05:55;;;;;;;3.65;1.63;;;;;;;;;;10334775;28;20070;-77
2021/11/13 15:10:57;;;;;;;3.42;1.77;;;;;;;;;;10336198;28;20109;-74
2021/11/13 15:16:07;;;;;;;3.10;2.15;;;;;;;;;;10335853;28;20057;-75
2021/11/13 15:21:08;;;;;;;7.18;3.05;;;;;;;;;;10335912;28;20047;-75
2021/11/13 15:26:08;;;;;;;3.10;2.17;;;;;;;;;;10336135;28;20117;-76
2021/11/13 15:31:13;;;;;;;4.70;2.63;;;;;;;;;;10334841;28;20117;-75
2021/11/13 15:36:14;;;;;;;12.00;3.28;;;;;;;;;;10335656;28;20121;-75
2021/11/13 15:41:35;;;;;;;9.63;2.80;;;;;;;;;;10335596;28;20085;-75
2021/11/13 15:46:35;;;;;;;7.10;2.35;;;;;;;;;;10335373;28;20130;-75
2021/11/13 15:51:36;;;;;;;13.10;2.60;;;;;;;;;;10334765;28;20106;-75
2021/11/13 15:56:37;;;;;;;5.43;1.83;;;;;;;;;;10350276;28;20498;-75
2021/11/13 16:01:38;;;;;;;8.13;2.55;;;;;;;;;;10333886;28;20029;-75
2021/11/13 16:06:38;;;;;;;6.93;2.72;;;;;;;;;;10334205;28;20093;-75
2021/11/13 16:11:39;;;;;;;4.10;1.50;;;;;;;;;;10334709;28;20062;-75
2021/11/13 16:16:39;;;;;;;2.80;1.98;;;;;;;;;;10349899;28;20082;-75
2021/11/13 16:21:40;;;;;;;6.63;2.27;;;;;;;;;;10334193;28;20140;-74
2021/11/13 16:26:40;;;;;;;2.53;2.30;;;;;;;;;;10349157;28;20260;-75
2021/11/13 16:31:43;;;;;;;6.25;2.15;;;;;;;;;;10334706;28;20030;-75
2021/11/13 16:36:43;;;;;;;22.38;3.85;;;;;;;;;;10348891;28;20026;-75
2021/11/13 16:41:44;;;;;;;3.65;1.90;;;;;;;;;;10333578;28;20464;-75
2021/11/13 16:46:44;;;;;;;6.25;3.42;;;;;;;;;;10332997;28;20038;-75
2021/11/13 16:51:44;;;;;;;8.73;2.78;;;;;;;;;;10349005;28;20030;-75
2021/11/13 16:56:47;;;;;;;27.38;3.35;;;;;;;;;;10333920;28;20053;-75
2021/11/13 17:01:51;;;;;;;6.05;1.98;;;;;;;;;;10355849;28;20145;-75
2021/11/13 17:06:53;;;;;;;7.25;2.83;;;;;;;;;;10339753;28;20042;-75
2021/11/13 17:11:54;;;;;;;3.60;2.60;;;;;;;;;;10340763;28;20383;-75
2021/11/13 17:16:54;;;;;;;4.28;2.03;;;;;;;;;;10340163;28;20030;-75
2021/11/13 17:21:54;;;;;;;4.47;2.65;;;;;;;;;;10340464;28;20133;-75
2021/11/13 17:26:54;;;;;;;9.10;2.75;;;;;;;;;;10340340;28;20034;-75
2021/11/13 17:31:55;;;;;;;9.70;2.63;;;;;;;;;;10339227;28;20022;-75
2021/11/13 17:36:55;;;;;;;3.75;2.40;;;;;;;;;;10339565;28;20462;-75
2021/11/13 17:41:55;;;;;;;4.15;2.33;;;;;;;;;;10354679;28;20113;-74
2021/11/13 17:46:55;;;;;;;4.30;3.53;;;;;;;;;;10355938;28;20490;-75
2021/11/13 17:51:56;;;;;;;15.20;3.28;;;;;;;;;;10338750;28;20026;-75
2021/11/13 17:56:56;;;;;;;8.93;3.03;;;;;;;;;;10353637;28;20535;-75
2021/11/13 18:01:58;;;;;;;9.77;3.80;;;;;;;;;;10338420;28;20320;-74
2021/11/13 18:06:59;;;;;;;16.75;2.83;;;;;;;;;;10338740;28;20113;-75
2021/11/13 18:11:59;;;;;;;10.75;4.82;;;;;;;;;;10337158;28;20127;-75
2021/11/13 18:16:59;;;;;;;9.80;4.55;;;;;;;;;;10353554;28;20114;-75
2021/11/13 18:21:59;;;;;;;14.68;4.43;;;;;;;;;;10338949;28;20054;-75
2021/11/13 18:27:00;;;;;;;3.70;2.90;;;;;;;;;;10337987;28;20540;-75
2021/11/13 18:32:00;;;;;;;8.82;3.92;;;;;;;;;;10353700;28;20021;-75
2021/11/13 18:37:03;;;;;;;9.07;4.38;;;;;;;;;;10338786;28;20427;-75
2021/11/13 18:42:03;;;;;;;8.88;4.47;;;;;;;;;;10337661;28;20041;-75
2021/11/13 18:47:03;;;;;;;8.68;3.72;;;;;;;;;;10337051;28;20125;-75
2021/11/13 18:52:04;;;;;;;8.00;4.30;;;;;;;;;;10337547;28;20077;-75
2021/11/13 18:57:13;;;;;;;19.35;5.20;;;;;;;;;;10336841;28;20350;-75
2021/11/13 19:02:13;;;;;;;48.10;27.67;;;;;;;;;;10338128;28;20089;-75
2021/11/13 19:07:14;;;;;;;16.30;9.35;;;;;;;;;;10336627;28;20080;-75
2021/11/13 19:12:14;;;;;;;18.45;6.53;;;;;;;;;;10336722;28;20034;-75
2021/11/13 19:17:14;;;;;;;10.82;6.80;;;;;;;;;;10337431;28;20395;-75
2021/11/13 19:22:14;;;;;;;15.27;8.68;;;;;;;;;;10335494;28;20050;-75
2021/11/13 19:27:14;;;;;;;18.30;7.75;;;;;;;;;;10336956;28;20109;-75
2021/11/13 19:32:15;;;;;;;23.17;8.52;;;;;;;;;;10350780;28;20520;-75
2021/11/13 19:37:15;;;;;;;18.08;7.68;;;;;;;;;;10335708;28;20468;-75
2021/11/13 19:42:15;;;;;;;13.65;8.10;;;;;;;;;;10334903;28;20053;-75
2021/11/13 19:47:16;;;;;;;21.77;9.32;;;;;;;;;;10333643;28;20034;-75
2021/11/13 19:52:16;;;;;;;21.35;11.30;;;;;;;;;;10334756;28;20023;-75
2021/11/13 19:57:19;;;;;;;17.27;11.55;;;;;;;;;;10334779;28;20088;-75
2021/11/13 20:02:19;;;;;;;19.42;11.40;;;;;;;;;;10334590;28;20149;-75
2021/11/13 20:07:19;;;;;;;15.98;10.82;;;;;;;;;;10335036;28;20453;-75
2021/11/13 20:12:20;;;;;;;19.13;10.63;;;;;;;;;;10334209;28;20061;-75
2021/11/13 20:17:20;;;;;;;16.33;8.50;;;;;;;;;;10332984;28;20034;-75
2021/11/13 20:22:20;;;;;;;19.75;8.30;;;;;;;;;;10333675;28;20081;-75
2021/11/13 20:27:20;;;;;;;12.30;8.90;;;;;;;;;;10334054;28;20027;-75
2021/11/13 20:32:21;;;;;;;13.90;7.90;;;;;;;;;;10336892;28;20030;-75
2021/11/13 20:37:25;;;;;;;9.93;7.10;;;;;;;;;;10342564;28;20488;-75
2021/11/13 20:42:26;;;;;;;8.27;5.88;;;;;;;;;;10357531;28;20524;-75
2021/11/13 20:47:27;;;;;;;17.60;5.72;;;;;;;;;;10341692;28;20046;-75
2021/11/13 20:52:27;;;;;;;12.70;6.93;;;;;;;;;;10341634;28;20107;-75
2021/11/13 20:57:27;;;;;;;9.47;5.47;;;;;;;;;;10342223;28;20308;-75
2021/11/13 21:02:27;;;;;;;4.88;3.83;;;;;;;;;;10340247;28;20275;-75
2021/11/13 21:07:28;;;;;;;4.75;3.42;;;;;;;;;;10356399;28;20026;-75
2021/11/13 21:12:28;;;;;;;12.45;6.13;;;;;;;;;;10340845;28;20054;-75
2021/11/13 21:17:31;;;;;;;12.30;6.20;;;;;;;;;;10340998;28;20038;-75
2021/11/13 21:22:32;;;;;;;5.40;4.65;;;;;;;;;;10341131;28;20061;-75
2021/11/13 21:27:32;;;;;;;7.10;5.15;;;;;;;;;;10339579;28;20046;-75
2021/11/13 21:32:32;;;;;;;6.82;3.67;;;;;;;;;;10340737;28;20022;-75
2021/11/13 21:37:32;;;;;;;9.73;4.90;;;;;;;;;;10341139;28;20026;-75
2021/11/13 21:42:32;;;;;;;10.50;4.55;;;;;;;;;;10340085;28;20052;-75
2021/11/13 21:47:33;;;;;;;9.57;4.55;;;;;;;;;;10339196;28;20117;-75
2021/11/13 21:52:35;;;;;;;11.80;5.35;;;;;;;;;;10354883;28;20109;-75
2021/11/13 21:57:36;;;;;;;9.32;3.97;;;;;;;;;;10354883;28;20404;-74
2021/11/13 22:02:36;;;;;;;9.95;4.32;;;;;;;;;;10340178;28;20030;-75
2021/11/13 22:07:36;;;;;;;6.63;4.55;;;;;;;;;;10339048;28;20034;-75
2021/11/13 22:12:37;;;;;;;8.65;4.70;;;;;;;;;;10339458;28;20031;-75
2021/11/13 22:17:39;;;;;;;11.80;4.40;;;;;;;;;;10338510;28;20022;-75
2021/11/13 22:22:39;;;;;;;6.00;3.90;;;;;;;;;;10336928;28;20054;-75
2021/11/13 22:27:42;;;;;;;7.65;4.53;;;;;;;;;;10338183;28;20022;-75
2021/11/13 22:32:42;;;;;;;13.88;5.20;;;;;;;;;;10338062;28;20420;-75
2021/11/13 22:37:44;;;;;;;20.00;5.00;;;;;;;;;;10337542;28;20034;-75
2021/11/13 22:42:44;;;;;;;12.05;4.60;;;;;;;;;;10336606;28;20034;-75
2021/11/13 22:47:45;;;;;;;12.45;5.03;;;;;;;;;;10352390;28;20121;-75
2021/11/13 22:52:45;;;;;;;10.18;4.75;;;;;;;;;;10337946;28;20034;-75
2021/11/13 22:57:46;;;;;;;9.13;5.18;;;;;;;;;;10337270;28;20579;-75
2021/11/13 23:02:46;;;;;;;8.27;4.70;;;;;;;;;;10351828;28;20030;-75
2021/11/13 23:07:46;;;;;;;10.60;5.30;;;;;;;;;;10335511;28;20038;-75
2021/11/13 23:12:46;;;;;;;9.50;4.57;;;;;;;;;;10350854;28;20085;-75
2021/11/13 23:17:46;;;;;;;7.75;4.85;;;;;;;;;;10335516;28;20038;-75
2021/11/13 23:22:47;;;;;;;20.08;6.25;;;;;;;;;;10334854;28;20054;-75
2021/11/13 23:27:48;;;;;;;15.55;4.97;;;;;;;;;;10336243;28;20038;-75
2021/11/13 23:32:48;;;;;;;11.52;5.22;;;;;;;;;;10335460;28;20109;-75
2021/11/13 23:37:49;;;;;;;19.23;5.97;;;;;;;;;;10334331;28;20395;-74
2021/11/13 23:42:49;;;;;;;10.35;5.43;;;;;;;;;;10335205;28;20022;-75
2021/11/13 23:47:49;;;;;;;12.60;5.68;;;;;;;;;;10334364;28;20043;-74
2021/11/13 23:52:50;;;;;;;17.13;5.70;;;;;;;;;;10334255;28;20026;-75
2021/11/13 23:57:50;;;;;;;18.35;5.40;;;;;;;;;;10336884;28;20031;-75
